Tiempo atmosférico en la estación meteorológica de El Maíllo, Salamanca (1027 m.)



Fecha
DESCASC
Temp. máxima en grados centígrados (hora)
DESCASC
Temp. mínima en grados centígrados (hora)
DESCASC
Temp. media en grados centígrados
DESCASC
Racha de viento máxima en m/sg (hora)
DESCASC
Velocidad máxima media en intervalos de 10 minutos(hora)
DESCASC
Precipitaciones diarias en mm
DESCASC
Precipitaciones de 00:00 a 06:00 en mm
DESCASC
Precipitaciones de 06:00 a 12:00 en mm
DESCASC
Precipitaciones de 12:00 a 18:00 en mm
DESCASC
Precipitaciones de 18:00 a 24:00 en mm
DESCASC
18-02-2018 9.3 (16:10) 0 (08:30) 4.7 13.33 (10:30) 8.89 (10:30) 0 0 0 0 0
17-02-2018 9.7 (16:20) 3.4 (03:30) 6.5 10.83 (23:59) 6.94 (23:59) 0 0 0 0 0
16-02-2018 14.6 (15:50) 3.5 (07:50) 9.1 11.11 (15:30) 4.72 (16:20) 0 0 0 0 0
15-02-2018 12.6 (14:40) 5.4 (00:00) 9 8.89 (01:30) 5.83 (02:20) 0 0 0 0 0
14-02-2018 8.4 (15:40) 4.6 (00:00) 6.5 13.06 (15:10) 8.89 (15:10) 0 0 0 0 0
13-02-2018 6.3 (16:10) -2.3 (-00:0) 2 14.44 (13:40) 9.44 (12:30) 0 0 0 0 0
12-02-2018 5.9 (16:10) -1.9 (-00:0) 2 7.5 (14:50) 4.72 (10:10) 1.2 1.2 0 0 0
11-02-2018 8.4 (16:10) 2.5 (00:00) 5.4 10.56 (16:50) 7.22 (14:50) 0.6 0 0 0 0.6
10-02-2018 6.1 (17:40) -1.8 (-00:0) 2.1 6.94 (11:50) 4.72 (12:20) 0 0 0 0 0
09-02-2018 3.4 (18:10) -3.8 (-00:0) -0.2 5.83 (14:50) 4.17 (00:50) 1.6 0 1.6 0 0
08-02-2018 2.2 (15:20) -4.4 (-00:0) -1.1 9.44 (12:20) 6.39 (12:00) 0 0 0 0 0
07-02-2018 1.7 (14:20) -4.1 (-00:0) -1.2 10.83 (17:50) 7.5 (15:10) 0 0 0 0 0
06-02-2018 1.1 (16:50) -5.7 (-00:0) -2.3 11.67 (10:50) 8.06 (12:30) 1.2 0 0.2 1 0
05-02-2018 1.9 (15:00) -2.2 (-00:0) -0.2 12.78 (18:20) 7.78 (18:20) 0.6 0 0 0.6 0
04-02-2018 2.7 (16:30) -1.9 (-00:0) 0.4 10.56 (13:00) 6.94 (13:50) 0 0 0 0 0
03-02-2018 5.1 (16:10) -5.1 (-00:0) 0 9.72 (20:30) 5.83 (21:20) 2.4 0 0 0.2 2.2
02-02-2018 3.9 (17:20) -3.6 (-00:0) 0.2 8.06 (14:40) 5 (14:30) 0 0 0 0 0
01-02-2018 5.6 (14:30) -3 (-00:0) 1.3 12.22 (17:00) 8.33 (17:00) 0 0 0 0 0
31-01-2018 13 (14:10) 0.1 (00:00) 6.6 6.94 (06:20) 5.56 (04:50) 0 0 0 0 0
30-01-2018 12.4 (16:10) 0.9 (00:00) 6.6 7.22 (01:40) 5.56 (02:00) 0 0 0 0 0
29-01-2018 12.9 (15:10) 1.3 (00:00) 7.1 7.22 (07:40) 5.28 (07:40) 0 0 0 0 0
28-01-2018 8.8 (17:10) -0.4 (00:00) 4.2 12.78 (07:40) 9.72 (07:50) 0 0 0 0 0
27-01-2018 5.6 (16:20) -2 (-00:0) 1.8 15.56 (21:40) 9.72 (21:40) 0 0 0 0 0
26-01-2018 4.5 (17:40) -0.7 (-00:0) 1.9 9.17 (17:40) 6.39 (17:10) 0.2 0 0 0.2 0
25-01-2018 7.4 (06:00) -0.2 (00:00) 3.6 13.61 (10:50) 8.61 (10:50) 11.4 0 6.6 4.8 0
24-01-2018 8.2 (13:30) -0.7 (-00:0) 3.7 5.28 (08:20) 3.33 (08:20) 0 0 0 0 0
23-01-2018 13.3 (13:50) -0.5 (-00:0) 6.4 5.83 (06:40) 4.44 (06:40) 0 0 0 0 0
22-01-2018 12.5 (16:10) 2.1 (00:00) 7.3 4.44 (00:50) 3.89 (00:50) 0 0 0 0 0

Gráficas

Temp. máximas Temp. mínimas Temp. medias Precipitaciones Rachas de viento máximas Velocidades máximas media en intervalos de 10 minutos

Datos horarios

Fecha y hora oficial Temperatura (ºC) Velocidad del viento (km/h) Dirección del viento Racha (km/h) Dirección de racha Precipitación (mm) Presión (hPa) Tendencia (hPa) Humedad (%)
2018-02-20 23:00:00 5.2 31 Este 45 Este 0 -- -- 75
2018-02-20 22:00:00 5.8 23 Este 36 Este 0 -- -- 71
2018-02-20 21:00:00 5.4 18 Este 34 Este 0 -- -- 72
2018-02-20 20:00:00 6.2 17 Este 27 Nordeste 0 -- -- 70
2018-02-20 19:00:00 7.5 18 Nordeste 37 Nordeste 0 -- -- 68
2018-02-20 18:00:00 9 27 Nordeste 40 Este 0 -- -- 62
2018-02-20 17:00:00 10 26 Nordeste 37 Nordeste 0 -- -- 62
2018-02-20 16:00:00 10.6 25 Nordeste 36 Nordeste 0 -- -- 59
2018-02-20 15:00:00 10.3 26 Nordeste 41 Nordeste 0 -- -- 57
2018-02-20 14:00:00 10 23 Nordeste 37 Nordeste 0 -- -- 60
2018-02-20 13:00:00 9.2 23 Nordeste 37 Nordeste 0 -- -- 64
2018-02-20 12:00:00 7.8 27 Nordeste 36 Nordeste 0 -- -- 70
2018-02-20 11:00:00 6.8 21 Nordeste 31 Este 0 -- -- 77
2018-02-20 10:00:00 5.7 17 Este 27 Este 0 -- -- 83
2018-02-20 09:00:00 3.3 16 Este 22 Este 0 -- -- 95
2018-02-20 08:00:00 1.3 10 Este 14 Este 0 -- -- 94
2018-02-20 07:00:00 2.5 4 Este 14 Este 0 -- -- 89
2018-02-20 06:00:00 2.8 12 Este 17 Este 0 -- -- 89
2018-02-20 05:00:00 3.7 11 Este 20 Este 0 -- -- 84
2018-02-20 04:00:00 4.3 14 Este 24 Este 0 -- -- 82
2018-02-20 03:00:00 4.4 17 Este 24 Este 0 -- -- 83
2018-02-20 02:00:00 4.7 15 Este 23 Nordeste 0 -- -- 81
2018-02-20 01:00:00 5.4 14 Este 19 Este 0 -- -- 79
2018-02-20 00:00:00 5 12 Este 19 Este 0 -- -- 79
2018-02-19 23:00:00 5.1 12 Este 19 Este 0 -- -- 79
2018-02-19 22:00:00 5.1 10 Este 14 Este 0 -- -- 78
2018-02-19 21:00:00 5.2 9 Este 15 Este 0 -- -- 77
2018-02-19 20:00:00 5.5 10 Este 14 Este 0 -- -- 77
2018-02-19 19:00:00 7.2 10 Este 22 Nordeste 0 -- -- 70
2018-02-19 18:00:00 8.7 16 Nordeste 30 Nordeste 0 -- -- 65
2018-02-19 17:00:00 9.3 19 Nordeste 33 Nordeste 0 -- -- 62
2018-02-19 16:00:00 9.4 19 Nordeste 33 Nordeste 0 -- -- 65
2018-02-19 15:00:00 9.9 20 Nordeste 34 Nordeste 0 -- -- 63
2018-02-19 14:00:00 8.6 21 Nordeste 32 Nordeste 0 -- -- 67
2018-02-19 13:00:00 8.4 18 Nordeste 29 Nordeste 0 -- -- 66
2018-02-19 12:00:00 7.7 20 Nordeste 29 Este 0 -- -- 68
2018-02-19 11:00:00 6.4 17 Nordeste 27 Nordeste 0 -- -- 70
2018-02-19 10:00:00 6 10 Este 19 Este 0 -- -- 74
2018-02-19 09:00:00 4 11 Este 17 Este 0 -- -- 81
2018-02-19 08:00:00 3.5 11 Este 17 Este 0 -- -- 82
2018-02-19 07:00:00 3.8 11 Este 18 Este 0 -- -- 79
2018-02-19 06:00:00 4.1 12 Este 18 Este 0 -- -- 78
2018-02-19 05:00:00 4.6 12 Este 19 Este 0 -- -- 75
2018-02-19 04:00:00 5.1 14 Este 23 Este 0 -- -- 73
2018-02-19 03:00:00 5 16 Este 24 Este 0 -- -- 74
2018-02-19 02:00:00 5 13 Este 24 Este 0 -- -- 74
2018-02-19 01:00:00 5.3 19 Este 27 Este 0 -- -- 76
2018-02-19 00:00:00 5.4 14 Este 32 Este 0 -- -- 74
2018-02-18 23:00:00 5.8 19 Este 32 Nordeste 0 -- -- 77
2018-02-18 22:00:00 5.8 16 Este 36 Este 0 -- -- 74
2018-02-18 21:00:00 5.6 21 Este 39 Este 0 -- -- 75
2018-02-18 20:00:00 6.1 25 Nordeste 37 Nordeste 0 -- -- 72
2018-02-18 19:00:00 6.5 20 Nordeste 36 Nordeste 0 -- -- 70
2018-02-18 18:00:00 7.7 23 Nordeste 38 Nordeste 0 -- -- 65
2018-02-18 17:00:00 9 24 Nordeste 38 Nordeste 0 -- -- 59
2018-02-18 16:00:00 9.1 28 Nordeste 45 Nordeste 0 -- -- 57
2018-02-18 15:00:00 8.5 27 Este 42 Este 0 -- -- 58
2018-02-18 14:00:00 7.9 27 Este 44 Este 0 -- -- 57
2018-02-18 13:00:00 7.2 28 Este 45 Este 0 -- -- 54
2018-02-18 12:00:00 6.2 29 Nordeste 45 Este 0 -- -- 55
2018-02-18 11:00:00 4.4 30 Este 48 Este 0 -- -- 62
2018-02-18 10:00:00 3.4 30 Este 45 Este 0 -- -- 62
2018-02-18 09:00:00 1 21 Este 31 Este 0 -- -- 72
2018-02-18 08:00:00 0.3 20 Este 30 Este 0 -- -- 77
2018-02-18 07:00:00 0.6 19 Este 29 Este 0 -- -- 83
2018-02-18 06:00:00 0.8 19 Este 28 Este 0 -- -- 83
2018-02-18 05:00:00 0.9 18 Este 29 Este 0 -- -- 83
2018-02-18 04:00:00 0.5 14 Este 21 Este 0 -- -- 86
2018-02-18 03:00:00 1 14 Este 25 Este 0 -- -- 84
2018-02-18 02:00:00 1.7 15 Este 24 Este 0 -- -- 83
2018-02-18 01:00:00 2.8 14 Este 34 Este 0 -- -- 84
2018-02-18 00:00:00 3.9 25 Este 39 Este 0 -- -- 81
2018-02-17 23:00:00 3.9 15 Este 27 Este 0 -- -- 80
2018-02-17 22:00:00 4.3 16 Este 27 Este 0 -- -- 83
2018-02-17 21:00:00 4.3 14 Este 22 Este 0 -- -- 88
2018-02-17 20:00:00 4.7 12 Este 23 Este 0 -- -- 86
2018-02-17 19:00:00 6.6 14 Nordeste 30 Nordeste 0 -- -- 79
2018-02-17 18:00:00 8.3 18 Nordeste 34 Nordeste 0 -- -- 71
2018-02-17 17:00:00 9.1 19 Nordeste 33 Nordeste 0 -- -- 70
2018-02-17 16:00:00 9.1 16 Nordeste 25 Nordeste 0 -- -- 74
2018-02-17 15:00:00 8.5 16 Nordeste 23 Nordeste 0 -- -- 77
2018-02-17 14:00:00 8.2 13 Nordeste 23 Nordeste 0 -- -- 81
2018-02-17 13:00:00 6.9 12 Nordeste 18 Nordeste 0 -- -- 93
2018-02-17 12:00:00 6 8 Nordeste 14 Norte 0 -- -- 98
2018-02-17 11:00:00 5.7 7 Norte 12 Norte 0 -- -- 98
2018-02-17 10:00:00 5.8 4 Norte 8 Nordeste 0 -- -- 98
2018-02-17 09:00:00 4.9 2 Este 12 Sudeste 0 -- -- 100
2018-02-17 08:00:00 4.9 6 Este 9 Este 0 -- -- 99
2018-02-17 07:00:00 5.4 2 Norte 4 Sur 0 -- -- 99
2018-02-17 06:00:00 5.2 0 Calma 6 Sur 0 -- -- 99
2018-02-17 05:00:00 4.3 4 Sur 10 Sur 0 -- -- 98
2018-02-17 04:00:00 3.5 7 Sur 11 Sur 0 -- -- 97
2018-02-17 03:00:00 3.7 9 Sur 15 Sur 0 -- -- 95
2018-02-17 02:00:00 3.7 14 Sur 15 Sur 0 -- -- 95
2018-02-17 01:00:00 4.1 9 Sur 12 Sur 0 -- -- 93
2018-02-17 00:00:00 4.5 10 Sur 14 Sur 0 -- -- 93
2018-02-16 23:00:00 4.4 11 Sur 13 Sur 0 -- -- 92
2018-02-16 22:00:00 4.9 13 Sur 15 Sur 0 -- -- 92
2018-02-16 21:00:00 4.1 12 Sur 14 Sur 0 -- -- 92
2018-02-16 20:00:00 6.4 6 Sudoeste 15 Sudoeste 0 -- -- 88
2018-02-16 19:00:00 8.5 12 Sudoeste 24 Sudoeste 0 -- -- 85
2018-02-16 18:00:00 11.8 9 Sudoeste 25 Oeste 0 -- -- 72
2018-02-16 17:00:00 13.7 14 Sudoeste 24 Oeste 0 -- -- 64
2018-02-16 16:00:00 14.3 13 Sur 40 Este 0 -- -- 64
2018-02-16 15:00:00 13 3 Norte 16 Noroeste 0 -- -- 72
2018-02-16 14:00:00 11.8 5 Noroeste 15 Noroeste 0 -- -- 79
2018-02-16 13:00:00 11.5 6 Norte 13 Nordeste 0 -- -- 79
2018-02-16 12:00:00 11.1 6 Nordeste 14 Este 0 -- -- 81
2018-02-16 11:00:00 9.4 7 Este 17 Este 0 -- -- 87
2018-02-16 10:00:00 7.6 6 Este 12 Este 0 -- -- 98
2018-02-16 09:00:00 5.1 3 Sudeste 13 Sudeste 0 -- -- 98
2018-02-16 08:00:00 3.5 10 Sur 13 Sur 0 -- -- 97
2018-02-16 07:00:00 4.5 5 Sur 16 Sur 0 -- -- 96
2018-02-16 06:00:00 5.3 10 Sur 14 Sur 0 -- -- 96
2018-02-16 05:00:00 5.9 12 Sur 15 Sur 0 -- -- 95
2018-02-16 04:00:00 5.8 9 Sur 13 Sur 0 -- -- 95
2018-02-16 03:00:00 6 6 Sur 8 Sur 0 -- -- 95
2018-02-16 02:00:00 6.2 5 Sur 11 Sur 0 -- -- 95
2018-02-16 01:00:00 5.9 7 Sudeste 13 Sudeste 0 -- -- 94
2018-02-16 00:00:00 7.3 9 Sur 15 Sur 0 -- -- 90
2018-02-15 23:00:00 7.7 5 Sur 14 Sudoeste 0 -- -- 93
2018-02-15 22:00:00 7.8 11 Sudoeste 16 Sudoeste 0 -- -- 92
2018-02-15 21:00:00 8.4 10 Oeste 14 Oeste 0 -- -- 90
2018-02-15 20:00:00 8.5 7 Sudoeste 21 Sudoeste 0 -- -- 88
2018-02-15 19:00:00 8.6 9 Sudoeste 21 Sudoeste 0 -- -- 88
2018-02-15 18:00:00 10.1 9 Sudoeste 20 Sudoeste 0 -- -- 83
2018-02-15 17:00:00 11 14 Sudoeste 24 Sudoeste 0 -- -- 78
2018-02-15 16:00:00 10.8 14 Sudoeste 25 Sudoeste 0 -- -- 82
2018-02-15 15:00:00 12.1 17 Sudoeste 31 Sudoeste 0 -- -- 74
2018-02-15 14:00:00 11.5 17 Sudoeste 29 Oeste 0 -- -- 77
2018-02-15 13:00:00 11.7 16 Sudoeste 32 Sudoeste 0 -- -- 75
2018-02-15 12:00:00 11.3 21 Sudoeste 32 Sudoeste 0 -- -- 77
2018-02-15 11:00:00 10.5 17 Sudoeste 25 Sudoeste 0 -- -- 80
2018-02-15 10:00:00 9.4 15 Sudoeste 26 Sudoeste 0 -- -- 87
2018-02-15 09:00:00 5.9 6 Este 10 Este 0 -- -- 98
2018-02-15 08:00:00 5.9 5 Nordeste 18 Sudoeste 0 -- -- 96
2018-02-15 07:00:00 6.6 6 Sudoeste 19 Sudoeste 0 -- -- 96
2018-02-15 06:00:00 6.7 9 Sudoeste 18 Sudoeste 0 -- -- 97
2018-02-15 05:00:00 6.8 11 Sudoeste 25 Sudoeste 0 -- -- 97
2018-02-15 04:00:00 7 14 Sudoeste 23 Sudoeste 0 -- -- 96
2018-02-15 03:00:00 6.8 13 Sudoeste 32 Sudoeste 0 -- -- 96
2018-02-15 02:00:00 7.1 19 Sudoeste 32 Sudoeste 0 -- -- 94
2018-02-15 01:00:00 6.9 15 Sudoeste 29 Sudoeste 0 -- -- 93
2018-02-15 00:00:00 7.7 20 Sudoeste 33 Sudoeste 0 -- -- 90
2018-02-14 23:00:00 7.8 14 Sudoeste 21 Sudoeste 0 -- -- 89
2018-02-14 22:00:00 7.9 14 Sudoeste 30 Sur 0 -- -- 90
2018-02-14 21:00:00 7 21 Sudoeste 33 Sudoeste 0 -- -- 95
2018-02-14 20:00:00 6.8 24 Sudoeste 37 Sudoeste 0 -- -- 96
2018-02-14 19:00:00 6.8 25 Sudoeste 41 Sudoeste 0 -- -- 94
2018-02-14 18:00:00 7.4 26 Sudoeste 39 Sudoeste 0 -- -- 90
2018-02-14 17:00:00 7.3 23 Sudoeste 44 Sudoeste 0 -- -- 91
2018-02-14 16:00:00 8.3 26 Sudoeste 47 Sudoeste 0 -- -- 85
2018-02-14 15:00:00 7.5 28 Sudoeste 46 Sudoeste 0 -- -- 89
2018-02-14 14:00:00 6.8 26 Sudoeste 40 Sudoeste 0 -- -- 90
2018-02-14 13:00:00 7.5 21 Sudoeste 43 Sudoeste 0 -- -- 85
2018-02-14 12:00:00 7.4 26 Sudoeste 46 Sudoeste 0 -- -- 85
2018-02-14 11:00:00 6.2 26 Sudoeste 44 Sudoeste 0 -- -- 90
2018-02-14 10:00:00 6.1 24 Sudoeste 37 Sudoeste 0 -- -- 87
2018-02-14 09:00:00 5.1 25 Sudoeste 40 Sudoeste 0 -- -- 94
2018-02-14 08:00:00 4.6 22 Sudoeste 36 Sudoeste 0 -- -- 96
2018-02-14 07:00:00 4.7 18 Sudoeste 34 Sudoeste 0 -- -- 95
2018-02-14 06:00:00 4.7 21 Sudoeste 34 Sudoeste 0 -- -- 92
2018-02-14 05:00:00 4.9 23 Sudoeste 38 Sudoeste 0 -- -- 86
2018-02-14 04:00:00 5.3 21 Sudoeste 30 Sudoeste 0 -- -- 81
2018-02-14 03:00:00 4.7 14 Sudoeste 33 Sudoeste 0 -- -- 89
2018-02-14 02:00:00 4.8 21 Sudoeste 32 Sudoeste 0 -- -- 87
2018-02-14 01:00:00 5 18 Sudoeste 33 Sudoeste 0 -- -- 86
2018-02-14 00:00:00 5 18 Sudoeste 33 Sudoeste 0 -- -- 86
2018-02-13 23:00:00 5 19 Sudoeste 30 Sudoeste 0 -- -- 88
2018-02-13 22:00:00 4.9 14 Sudoeste 33 Sur 0 -- -- 90
2018-02-13 21:00:00 5.1 20 Sudoeste 37 Sudoeste 0 -- -- 89
2018-02-13 20:00:00 5.3 23 Sudoeste 39 Sudoeste 0 -- -- 87
2018-02-13 19:00:00 5.4 22 Sudoeste 36 Sudoeste 0 -- -- 85
2018-02-13 18:00:00 5.6 22 Sudoeste 46 Sudoeste 0 -- -- 83
2018-02-13 17:00:00 6.3 27 Sudoeste 41 Sudoeste 0 -- -- 78
2018-02-13 16:00:00 6.2 31 Sudoeste 51 Sudoeste 0 -- -- 78
2018-02-13 15:00:00 5.8 30 Sudoeste 50 Sudoeste 0 -- -- 77
2018-02-13 14:00:00 5.8 30 Sudoeste 52 Sudoeste 0 -- -- 75
2018-02-13 13:00:00 5.6 27 Sudoeste 49 Sudoeste 0 -- -- 70
2018-02-13 12:00:00 5.5 30 Sudoeste 45 Sudoeste 0 -- -- 68
2018-02-13 11:00:00 3.9 24 Sudoeste 40 Sudoeste 0 -- -- 70
2018-02-13 10:00:00 1.5 24 Sudoeste 40 Sudoeste 0 -- -- 77
2018-02-13 09:00:00 -0.7 21 Sudoeste 31 Sudoeste 0 -- -- 90
2018-02-13 08:00:00 -1.7 15 Sudoeste 28 Sudoeste 0 -- -- 89
2018-02-13 07:00:00 -2 12 Sudoeste 20 Sudoeste 0 -- -- 87
2018-02-13 06:00:00 -2.1 12 Sudoeste 21 Sudoeste 0 -- -- 84
2018-02-13 05:00:00 -2 9 Sudoeste 16 Sudoeste 0 -- -- 84
2018-02-13 04:00:00 -1.5 12 Sudoeste 15 Sudoeste 0 -- -- 90
2018-02-13 03:00:00 -1.5 10 Sudoeste 13 Sudoeste 0 -- -- 90
2018-02-13 02:00:00 -1.7 6 Sudoeste 12 Sur 0 -- -- 87
2018-02-13 01:00:00 -2.3 8 Sur 15 Sur 0 -- -- 89
2018-02-13 00:00:00 -1.9 10 Sur 17 Sur 0 -- -- 87
2018-02-12 23:00:00 -1.3 12 Sur 15 Sur 0 -- -- 84
2018-02-12 22:00:00 -1.2 11 Sur 18 Sur 0 -- -- 83
2018-02-12 21:00:00 -1.4 13 Sur 17 Sur 0 -- -- 82
2018-02-12 20:00:00 -0.8 12 Sur 15 Sur 0 -- -- 78
2018-02-12 19:00:00 2.5 6 Oeste 18 Noroeste 0 -- -- 62
2018-02-12 18:00:00 5.2 11 Noroeste 24 Noroeste 0 -- -- 53
2018-02-12 17:00:00 4.4 12 Noroeste 26 Noroeste 0 -- -- 50
2018-02-12 16:00:00 5.2 12 Noroeste 24 Noroeste 0 -- -- 55
2018-02-12 15:00:00 5.3 14 Norte 27 Noroeste 0 -- -- 52
2018-02-12 14:00:00 4.9 13 Norte 26 Nordeste 0 -- -- 55
2018-02-12 13:00:00 4.3 10 Norte 21 Nordeste 0 -- -- 55
2018-02-12 12:00:00 3.2 10 Norte 23 Norte 0 -- -- 63
2018-02-12 11:00:00 2.5 15 Nordeste 25 Este 0 -- -- 71
2018-02-12 10:00:00 1.3 16 Este 24 Este 0 -- -- 73
2018-02-12 09:00:00 -0.1 12 Este 24 Este 0 -- -- 85
2018-02-12 08:00:00 0.1 10 Nordeste 15 Este 0 -- -- 97
2018-02-12 07:00:00 1.4 7 Norte 12 Norte 0 -- -- 97
2018-02-12 06:00:00 2 6 Norte 10 Nordeste 0 -- -- 94
2018-02-12 05:00:00 2 8 Sur 15 Sur 0 -- -- 94
2018-02-12 04:00:00 2.2 4 Sudoeste 11 Noroeste 0 -- -- 97
2018-02-12 03:00:00 3.2 6 Norte 17 Noroeste 0.2 -- -- 99
2018-02-12 02:00:00 4.2 10 Oeste 16 Oeste 0.4 -- -- 99
2018-02-12 01:00:00 4.5 10 Oeste 22 Noroeste 0.6 -- -- 99
2018-02-12 00:00:00 5.7 16 Oeste 27 Oeste 0.2 -- -- 98
2018-02-11 23:00:00 5.9 13 Sudoeste 24 Sudoeste 0.2 -- -- 97
2018-02-11 22:00:00 6.1 17 Sudoeste 26 Sudoeste 0.2 -- -- 96
2018-02-11 21:00:00 6.2 15 Sudoeste 28 Oeste 0 -- -- 95
2018-02-11 20:00:00 6.5 19 Sudoeste 30 Sudoeste 0 -- -- 92
2018-02-11 19:00:00 7.4 17 Oeste 33 Oeste 0 -- -- 93
2018-02-11 18:00:00 8 24 Oeste 38 Oeste 0 -- -- 92
2018-02-11 17:00:00 8.3 25 Oeste 38 Oeste 0 -- -- 89
2018-02-11 16:00:00 8.3 23 Oeste 33 Sudoeste 0 -- -- 93
2018-02-11 15:00:00 7.7 22 Oeste 35 Oeste 0 -- -- 99
2018-02-11 14:00:00 6.9 14 Sudoeste 26 Sudoeste 0 -- -- 100
2018-02-11 13:00:00 6.6 14 Sudoeste 29 Oeste 0 -- -- 100
2018-02-11 12:00:00 5.9 19 Oeste 30 Sudoeste 0 -- -- 100
2018-02-11 11:00:00 6 14 Oeste 24 Sudoeste 0 -- -- 100
2018-02-11 10:00:00 5.9 10 Sudoeste 21 Sudoeste 0 -- -- 100
2018-02-11 09:00:00 5.4 12 Sudoeste 22 Sudoeste 0 -- -- 100
2018-02-11 08:00:00 5.1 10 Oeste 17 Oeste 0 -- -- 100
2018-02-11 07:00:00 4.4 10 Sudoeste 29 Sudoeste 0 -- -- 99
2018-02-11 06:00:00 4.1 10 Sudoeste 17 Sudoeste 0 -- -- 99
2018-02-11 05:00:00 4 10 Sudoeste 21 Sudoeste 0 -- -- 98
2018-02-11 04:00:00 3.6 9 Sudoeste 17 Oeste 0 -- -- 95
2018-02-11 03:00:00 3.1 11 Sudoeste 18 Sudoeste 0 -- -- 94
2018-02-11 02:00:00 2.8 10 Sudoeste 16 Sudoeste 0 -- -- 94
2018-02-11 01:00:00 2.5 8 Sudoeste 12 Sudoeste 0 -- -- 93
2018-02-11 00:00:00 2.6 5 Sudoeste 11 Sudoeste 0 -- -- 91
2018-02-10 23:00:00 2.5 5 Oeste 9 Oeste 0 -- -- 90
2018-02-10 22:00:00 1.7 3 Sudoeste 13 Sur 0 -- -- 88
2018-02-10 21:00:00 1.6 4 Sudoeste 6 Sur 0 -- -- 85
2018-02-10 20:00:00 1.9 4 Sur 8 Sur 0 -- -- 79
2018-02-10 19:00:00 4.2 5 Noroeste 22 Noroeste 0 -- -- 69
2018-02-10 18:00:00 5.8 11 Noroeste 21 Noroeste 0 -- -- 61
2018-02-10 17:00:00 5.9 9 Norte 22 Norte 0 -- -- 64
2018-02-10 16:00:00 5.9 13 Norte 24 Norte 0 -- -- 63
2018-02-10 15:00:00 5.2 10 Norte 23 Nordeste 0 -- -- 61
2018-02-10 14:00:00 4.4 13 Nordeste 24 Nordeste 0 -- -- 62
2018-02-10 13:00:00 3.7 16 Nordeste 24 Nordeste 0 -- -- 63
2018-02-10 12:00:00 2.9 15 Nordeste 25 Nordeste 0 -- -- 73
2018-02-10 11:00:00 1.5 16 Nordeste 24 Nordeste 0 -- -- 78
2018-02-10 10:00:00 0.7 11 Este 17 Nordeste 0 -- -- 89
2018-02-10 09:00:00 -1.2 0 Calma -- -- 0 -- -- 98
2018-02-10 08:00:00 -1.5 0 Calma -- -- 0 -- -- 99
2018-02-10 07:00:00 -1.3 0 Calma -- -- 0 -- -- 99
2018-02-10 06:00:00 -1.3 0 Calma -- -- 0 -- -- 99
2018-02-10 05:00:00 -1 0 Calma 9 Nordeste 0 -- -- 98
2018-02-10 04:00:00 -0.7 6 Nordeste 13 Nordeste 0 -- -- 97
2018-02-10 03:00:00 0.1 9 Nordeste 14 Nordeste 0 -- -- 92
2018-02-10 02:00:00 0.1 4 Nordeste 8 Este 0 -- -- 92
2018-02-10 01:00:00 0.3 8 Este 13 Este 0 -- -- 91
2018-02-10 00:00:00 1.1 7 Este 10 Este 0 -- -- 94
2018-02-09 23:00:00 1.9 4 Este 9 Norte 0 -- -- 95
2018-02-09 22:00:00 2.5 2 Sur 6 Oeste 0 -- -- 97
2018-02-09 21:00:00 2.9 5 Sudoeste 9 Sudoeste 0 -- -- 97
2018-02-09 20:00:00 2.9 4 Sudoeste 11 Sur 0 -- -- 97
2018-02-09 19:00:00 3.3 6 Sur 9 Sur 0 -- -- 98
2018-02-09 18:00:00 3.3 5 Sur 11 Oeste 0 -- -- 99
2018-02-09 17:00:00 2.9 8 Oeste 13 Oeste 0 -- -- 100
2018-02-09 16:00:00 2.3 8 Sudoeste 16 Oeste 0 -- -- 99
2018-02-09 15:00:00 2.1 10 Oeste 21 Oeste 0 -- -- 99
2018-02-09 14:00:00 2.6 8 Oeste 16 Oeste 0 -- -- 99
2018-02-09 13:00:00 2.5 9 Oeste 13 Oeste 0 -- -- 99
2018-02-09 12:00:00 2.1 6 Oeste 18 Oeste 0 -- -- 99
2018-02-09 11:00:00 2.2 12 Oeste 18 Oeste 0 -- -- 98
2018-02-09 10:00:00 1.8 8 Sudoeste 13 Oeste 0.4 -- -- 98
2018-02-09 09:00:00 0.3 5 Oeste 15 Sur 0.6 -- -- 96
2018-02-09 08:00:00 0.7 11 Sur 14 Sur 0.6 -- -- 96
2018-02-09 07:00:00 -0.4 4 Noroeste 8 Sur 0 -- -- 91
2018-02-09 06:00:00 -1 6 Sur 9 Sur 0 -- -- 86
2018-02-09 05:00:00 -1.3 6 Sudoeste 11 Sur 0 -- -- 76
2018-02-09 04:00:00 -2 8 Sur 12 Sur 0 -- -- 80
2018-02-09 03:00:00 -1.6 9 Sur 17 Sur 0 -- -- 76
2018-02-09 02:00:00 -2.5 13 Sur 18 Sur 0 -- -- 76
2018-02-09 01:00:00 -3.7 15 Sur 18 Sur 0 -- -- 80
2018-02-09 00:00:00 -3.7 13 Sur 17 Sur 0 -- -- 80
2018-02-08 23:00:00 -3.4 11 Sur 13 Sur 0 -- -- 80
2018-02-08 22:00:00 -3.7 6 Sudeste 10 Sudeste 0 -- -- 84
2018-02-08 21:00:00 -3.3 6 Este 8 Este 0 -- -- 84
2018-02-08 20:00:00 -2.2 3 Este 6 Este 0 -- -- 76
2018-02-08 19:00:00 -0.5 4 Nordeste 13 Norte 0 -- -- 67
2018-02-08 18:00:00 1.4 8 Nordeste 21 Nordeste 0 -- -- 60
2018-02-08 17:00:00 1.7 12 Nordeste 23 Norte 0 -- -- 57
2018-02-08 16:00:00 2.1 14 Nordeste 24 Nordeste 0 -- -- 60
2018-02-08 15:00:00 1.9 13 Nordeste 27 Nordeste 0 -- -- 58
2018-02-08 14:00:00 1.6 15 Este 31 Nordeste 0 -- -- 62
2018-02-08 13:00:00 0.9 22 Nordeste 34 Nordeste 0 -- -- 64
2018-02-08 12:00:00 -0.2 23 Nordeste 33 Nordeste 0 -- -- 67
2018-02-08 11:00:00 -0.7 17 Nordeste 31 Este 0 -- -- 71
2018-02-08 10:00:00 -1.9 17 Este 28 Este 0 -- -- 75
2018-02-08 09:00:00 -3.2 17 Este 28 Este 0 -- -- 80
2018-02-08 08:00:00 -4 17 Este 27 Este 0 -- -- 82
2018-02-08 07:00:00 -4.2 17 Este 30 Este 0 -- -- 84
2018-02-08 06:00:00 -3.7 19 Este 27 Este 0 -- -- 83
2018-02-08 05:00:00 -4.3 17 Nordeste 24 Este 0 -- -- 89
2018-02-08 04:00:00 -3.8 13 Este 27 Este 0 -- -- 83
2018-02-08 03:00:00 -3.2 17 Este 30 Este 0 -- -- 84
2018-02-08 02:00:00 -2.6 17 Este 33 Este 0 -- -- 80
2018-02-08 01:00:00 -2 16 Este 29 Este 0 -- -- 77
2018-02-08 00:00:00 -1.8 14 Este 19 Este 0 -- -- 73
2018-02-07 23:00:00 -1.4 12 Este 22 Este 0 -- -- 74
2018-02-07 22:00:00 -1.7 14 Este 22 Este 0 -- -- 74
2018-02-07 21:00:00 -1.8 11 Este 20 Este 0 -- -- 74
2018-02-07 20:00:00 -1.5 12 Este 24 Este 0 -- -- 74
2018-02-07 19:00:00 -0.5 15 Nordeste 33 Nordeste 0 -- -- 70
2018-02-07 18:00:00 1 24 Nordeste 39 Nordeste 0 -- -- 66
2018-02-07 17:00:00 1.4 19 Nordeste 35 Nordeste 0 -- -- 67
2018-02-07 16:00:00 1.2 23 Nordeste 37 Nordeste 0 -- -- 68
2018-02-07 15:00:00 0.8 25 Nordeste 38 Nordeste 0 -- -- 70
2018-02-07 14:00:00 1 21 Nordeste 34 Nordeste 0 -- -- 70
2018-02-07 13:00:00 0.5 20 Nordeste 30 Nordeste 0 -- -- 79
2018-02-07 12:00:00 -0.8 17 Nordeste 26 Nordeste 0 -- -- 84
2018-02-07 11:00:00 -2.2 13 Este 21 Este 0 -- -- 89
2018-02-07 10:00:00 -2.8 11 Nordeste 17 Nordeste 0 -- -- 90
2018-02-07 09:00:00 -3.6 8 Este 14 Nordeste 0 -- -- 89
2018-02-07 08:00:00 -3.6 8 Este 14 Este 0 -- -- 89
2018-02-07 07:00:00 -3.8 9 Este 14 Este 0 -- -- 86
2018-02-07 06:00:00 -2.8 9 Este 17 Este 0 -- -- 82
2018-02-07 05:00:00 -3.1 9 Este 16 Este 0 -- -- 84
2018-02-07 04:00:00 -3.5 9 Este 18 Este 0 -- -- 84
2018-02-07 03:00:00 -3.3 11 Este 16 Este 0 -- -- 85
2018-02-07 02:00:00 -3.9 9 Este 14 Nordeste 0 -- -- 84
2018-02-07 01:00:00 -3 10 Este 19 Nordeste 0 -- -- 81
2018-02-07 00:00:00 -2.4 12 Este 24 Este 0 -- -- 78
2018-02-06 23:00:00 -1.9 14 Este 23 Este 0 -- -- 77
2018-02-06 22:00:00 -2.3 13 Este 17 Este 0 -- -- 77
2018-02-06 21:00:00 -2.2 9 Este 14 Este 0 -- -- 76
2018-02-06 20:00:00 -1.9 8 Este 12 Nordeste 0 -- -- 78
2018-02-06 19:00:00 -0.5 9 Nordeste 19 Nordeste 0 -- -- 75
2018-02-06 18:00:00 0.2 13 Nordeste 30 Nordeste 0 -- -- 70
2018-02-06 17:00:00 0.9 22 Nordeste 31 Nordeste 0 -- -- 67
2018-02-06 16:00:00 0.2 21 Nordeste 32 Nordeste 0 -- -- 75
2018-02-06 15:00:00 -0.2 21 Nordeste 30 Nordeste 0.2 -- -- 78
2018-02-06 14:00:00 -0.8 19 Nordeste 36 Nordeste 0.4 -- -- 79
2018-02-06 13:00:00 -1.4 27 Nordeste 39 Nordeste 0.4 -- -- 81
2018-02-06 12:00:00 -2.1 26 Nordeste 41 Este 0.2 -- -- 82
2018-02-06 11:00:00 -2.8 23 Nordeste 42 Nordeste 0 -- -- 85
2018-02-06 10:00:00 -3.8 24 Este 37 Nordeste 0 -- -- 87
2018-02-06 09:00:00 -5 18 Este 26 Este 0 -- -- 91
2018-02-06 08:00:00 -5.6 17 Este 25 Este 0 -- -- 92
2018-02-06 07:00:00 -5.1 15 Nordeste 34 Nordeste 0 -- -- 90
2018-02-06 06:00:00 -4 23 Nordeste 31 Nordeste 0 -- -- 89
2018-02-06 05:00:00 -3.8 7 Este 14 Este 0 -- -- 95
2018-02-06 04:00:00 -3.6 8 Nordeste 19 Este 0 -- -- 96
2018-02-06 03:00:00 -3.4 7 Este 23 Nordeste 0 -- -- 98
2018-02-06 02:00:00 -2.8 9 Nordeste 19 Nordeste 0 -- -- 99
2018-02-06 01:00:00 -2.2 11 Nordeste 24 Nordeste 0 -- -- 99
2018-02-06 00:00:00 -2 13 Nordeste 31 Nordeste 0 -- -- 99
2018-02-05 23:00:00 -1.9 19 Nordeste 37 Nordeste 0 -- -- 99
2018-02-05 22:00:00 -1.7 13 Nordeste 28 Nordeste 0 -- -- 99
2018-02-05 21:00:00 -1.5 19 Nordeste 37 Nordeste 0 -- -- 99
2018-02-05 20:00:00 -1.5 21 Nordeste 34 Nordeste 0 -- -- 98
2018-02-05 19:00:00 -0.9 24 Nordeste 46 Nordeste 0 -- -- 97
2018-02-05 18:00:00 0.4 12 Nordeste 36 Este 0 -- -- 94
2018-02-05 17:00:00 1.4 21 Nordeste 34 Nordeste 0.2 -- -- 84
2018-02-05 16:00:00 0.4 16 Nordeste 37 Nordeste 0.2 -- -- 95
2018-02-05 15:00:00 1.9 22 Nordeste 33 Nordeste 0.2 -- -- 85
2018-02-05 14:00:00 0.1 20 Nordeste 31 Nordeste 0 -- -- 94
2018-02-05 13:00:00 -0.5 22 Nordeste 34 Nordeste 0 -- -- 96
2018-02-05 12:00:00 -0.8 24 Nordeste 36 Nordeste 0 -- -- 97
2018-02-05 11:00:00 -1.4 13 Nordeste 27 Nordeste 0 -- -- 95
2018-02-05 10:00:00 -1.6 10 Nordeste 22 Este 0 -- -- 96
2018-02-05 09:00:00 -2 12 Nordeste 19 Nordeste 0 -- -- 96
2018-02-05 08:00:00 -1.9 13 Nordeste 27 Nordeste 0 -- -- 95
2018-02-05 07:00:00 -1.8 10 Nordeste 15 Nordeste 0 -- -- 96
2018-02-05 06:00:00 -1.7 6 Nordeste 13 Nordeste 0 -- -- 95
2018-02-05 05:00:00 -1.8 8 Nordeste 13 Nordeste 0 -- -- 95
2018-02-05 04:00:00 -2.2 6 Nordeste 19 Nordeste 0 -- -- 94
2018-02-05 03:00:00 -1.3 14 Este 22 Este 0 -- -- 91
2018-02-05 02:00:00 -1.3 12 Nordeste 23 Este 0 -- -- 88
2018-02-05 01:00:00 -1.7 12 Este 27 Nordeste 0 -- -- 89
2018-02-05 00:00:00 -0.3 19 Nordeste 30 Nordeste 0 -- -- 83
2018-02-04 23:00:00 -0.6 14 Nordeste 22 Este 0 -- -- 84
2018-02-04 22:00:00 -0.7 13 Nordeste 19 Este 0 -- -- 85
2018-02-04 21:00:00 -0.3 12 Este 15 Nordeste 0 -- -- 81
2018-02-04 20:00:00 0.5 9 Este 13 Nordeste 0 -- -- 77
2018-02-04 19:00:00 1.8 10 Nordeste 18 Nordeste 0 -- -- 73
2018-02-04 18:00:00 2 14 Nordeste 27 Nordeste 0 -- -- 73
2018-02-04 17:00:00 2.6 21 Nordeste 31 Nordeste 0 -- -- 68
2018-02-04 16:00:00 2.4 17 Nordeste 29 Nordeste 0 -- -- 68
2018-02-04 15:00:00 2 19 Nordeste 33 Nordeste 0 -- -- 74
2018-02-04 14:00:00 0.9 22 Nordeste 34 Nordeste 0 -- -- 82
2018-02-04 13:00:00 1.2 22 Nordeste 38 Nordeste 0 -- -- 80
2018-02-04 12:00:00 0.1 16 Nordeste 24 Norte 0 -- -- 85
2018-02-04 11:00:00 -0.8 8 Nordeste 18 Nordeste 0 -- -- 97
2018-02-04 10:00:00 -1.6 6 Norte 17 Norte 0 -- -- 99
2018-02-04 09:00:00 -1.9 7 Norte 20 Norte 0 -- -- 99
2018-02-04 08:00:00 -1.6 4 Norte 13 Noroeste 0 -- -- 99
2018-02-04 07:00:00 -1.3 7 Noroeste 18 Oeste 0 -- -- 99
2018-02-04 06:00:00 -0.9 12 Noroeste 24 Noroeste 0 -- -- 99
2018-02-04 05:00:00 -0.3 6 Noroeste 27 Noroeste 0 -- -- 99
2018-02-04 04:00:00 0.2 17 Noroeste 30 Noroeste 0 -- -- 100
2018-02-04 03:00:00 1 14 Noroeste 32 Oeste 0 -- -- 99
2018-02-04 02:00:00 1.5 19 Oeste 32 Oeste 0 -- -- 99
2018-02-04 01:00:00 1.8 18 Oeste 33 Oeste 0 -- -- 99
2018-02-04 00:00:00 2 20 Oeste 34 Oeste 0 -- -- 99
2018-02-03 23:00:00 2.5 17 Oeste 30 Oeste 0.2 -- -- 99
2018-02-03 22:00:00 2.8 17 Oeste 33 Oeste 0 -- -- 99
2018-02-03 21:00:00 3.2 18 Oeste 35 Oeste 0.6 -- -- 98
2018-02-03 20:00:00 3.2 15 Sudoeste 22 Sudoeste 1.2 -- -- 97
2018-02-03 19:00:00 3.4 12 Sudoeste 24 Sudoeste 0.2 -- -- 94
2018-02-03 18:00:00 3.6 14 Sudoeste 24 Sudoeste 0.2 -- -- 91
2018-02-03 17:00:00 4.7 18 Oeste 27 Oeste 0 -- -- 78
2018-02-03 16:00:00 4.9 13 Oeste 29 Sudoeste 0 -- -- 75
2018-02-03 15:00:00 4.4 18 Oeste 25 Sudoeste 0 -- -- 75
2018-02-03 14:00:00 3.3 10 Oeste 21 Oeste 0 -- -- 79
2018-02-03 13:00:00 3 8 Oeste 15 Sudoeste 0 -- -- 79
2018-02-03 12:00:00 1.8 12 Oeste 17 Oeste 0 -- -- 77
2018-02-03 11:00:00 1.3 8 Oeste 13 Oeste 0 -- -- 75
2018-02-03 10:00:00 -0.8 2 Sudoeste 18 Sur 0 -- -- 82
2018-02-03 09:00:00 -4 10 Sur 17 Sur 0 -- -- 88
2018-02-03 08:00:00 -4.5 14 Sur 17 Sur 0 -- -- 90
2018-02-03 07:00:00 -4.4 9 Sur 15 Sur 0 -- -- 90
2018-02-03 06:00:00 -5 8 Sur 11 Sur 0 -- -- 89
2018-02-03 05:00:00 -4.4 6 Sur 18 Sur 0 -- -- 89
2018-02-03 04:00:00 -4.7 12 Sur 15 Sur 0 -- -- 88
2018-02-03 03:00:00 -4.4 7 Sur 14 Sur 0 -- -- 87
2018-02-03 02:00:00 -3.9 9 Sur 12 Sur 0 -- -- 87
2018-02-03 01:00:00 -3.5 8 Sur 11 Sur 0 -- -- 88
2018-02-03 00:00:00 -3.2 7 Sur 10 Sur 0 -- -- 88
2018-02-02 23:00:00 -2.4 5 Sur 12 Sur 0 -- -- 85
2018-02-02 22:00:00 -1.4 3 Sur 10 Sur 0 -- -- 81
2018-02-02 21:00:00 0.6 3 Oeste 11 Oeste 0 -- -- 73
2018-02-02 20:00:00 0.3 4 Sur 9 Sudeste 0 -- -- 75
2018-02-02 19:00:00 1.5 2 Nordeste 23 Noroeste 0 -- -- 68
2018-02-02 18:00:00 3.7 13 Norte 22 Noroeste 0 -- -- 58
2018-02-02 17:00:00 3.4 14 Norte 26 Norte 0 -- -- 56
2018-02-02 16:00:00 3.5 13 Norte 27 Norte 0 -- -- 59
2018-02-02 15:00:00 2.9 13 Norte 29 Nordeste 0 -- -- 61
2018-02-02 14:00:00 2 13 Norte 23 Norte 0 -- -- 69
2018-02-02 13:00:00 1.2 9 Norte 15 Noroeste 0 -- -- 75
2018-02-02 12:00:00 -0.9 3 Norte 6 Norte 0 -- -- 85
2018-02-02 11:00:00 -1.7 2 Nordeste 7 Nordeste 0 -- -- 89
2018-02-02 10:00:00 -2.2 3 Sudeste 5 Norte 0 -- -- 94
2018-02-02 09:00:00 -2.9 0 Calma 5 Noroeste 0 -- -- 97
2018-02-02 08:00:00 -2.9 3 Oeste 9 Norte 0 -- -- 97
2018-02-02 07:00:00 -3 2 Sudeste 5 Este 0 -- -- 97
2018-02-02 06:00:00 -2.6 0 Calma 9 Noroeste 0 -- -- 97
2018-02-02 05:00:00 -2.5 3 Norte 10 Norte 0 -- -- 96
2018-02-02 04:00:00 -3.4 0 Calma 5 Sur 0 -- -- 95
2018-02-02 03:00:00 -3.6 4 Sur 5 Sur 0 -- -- 94
2018-02-02 02:00:00 -2.7 2 Norte 5 Noroeste 0 -- -- 93
2018-02-02 01:00:00 -2.4 2 Noroeste 7 Sur 0 -- -- 93
2018-02-02 00:00:00 -3 4 Sur 6 Sur 0 -- -- 92
2018-02-01 23:00:00 -1.3 0 Calma 8 Norte 0 -- -- 91
2018-02-01 22:00:00 -0.6 2 Noroeste 10 Noroeste 0 -- -- 92
2018-02-01 21:00:00 -0.2 2 Oeste 8 Noroeste 0 -- -- 92
2018-02-01 20:00:00 0.8 7 Oeste 30 Noroeste 0 -- -- 89
2018-02-01 19:00:00 2.3 18 Noroeste 34 Noroeste 0 -- -- 82
2018-02-01 18:00:00 3.5 21 Noroeste 40 Noroeste 0 -- -- 75
2018-02-01 17:00:00 5.1 30 Noroeste 44 Noroeste 0 -- -- 67
2018-02-01 16:00:00 4.5 19 Noroeste 40 Noroeste 0 -- -- 66
2018-02-01 15:00:00 5 24 Noroeste 36 Noroeste 0 -- -- 70
2018-02-01 14:00:00 5.1 19 Noroeste 28 Noroeste 0 -- -- 79
2018-02-01 13:00:00 3.7 13 Noroeste 22 Noroeste 0 -- -- 92
2018-02-01 12:00:00 3.1 11 Noroeste 19 Noroeste 0 -- -- 97
2018-02-01 11:00:00 2.7 8 Noroeste 18 Noroeste 0 -- -- 97
2018-02-01 10:00:00 2.8 5 Oeste 13 Noroeste 0 -- -- 96
2018-02-01 09:00:00 2.8 5 Noroeste 17 Oeste 0 -- -- 95
2018-02-01 08:00:00 2.8 6 Oeste 14 Oeste 0 -- -- 93
2018-02-01 07:00:00 2 8 Sudoeste 15 Oeste 0 -- -- 88
2018-02-01 06:00:00 3.2 9 Sudoeste 17 Sudoeste 0 -- -- 81
2018-02-01 05:00:00 4.4 11 Sudoeste 17 Sudoeste 0 -- -- 73
2018-02-01 04:00:00 4.7 11 Sudoeste 16 Sudoeste 0 -- -- 71
2018-02-01 03:00:00 2.4 9 Sur 14 Sur 0 -- -- 80
2018-02-01 02:00:00 2.1 8 Sur 20 Sur 0 -- -- 76
2018-02-01 01:00:00 1.8 17 Sur 19 Sur 0 -- -- 72
2018-02-01 00:00:00 3 12 Sur 23 Sur 0 -- -- 66
2018-01-31 23:00:00 2.6 18 Sur 23 Sur 0 -- -- 65
2018-01-31 22:00:00 2.4 19 Sur 22 Sur 0 -- -- 72
2018-01-31 21:00:00 2.7 19 Sur 21 Sur 0 -- -- 65
2018-01-31 20:00:00 3.2 15 Sur 19 Sur 0 -- -- 61
2018-01-31 19:00:00 5 13 Sur 16 Sur 0 -- -- 56
2018-01-31 18:00:00 11.8 4 Noroeste 14 Norte 0 -- -- 36
2018-01-31 17:00:00 12.5 6 Noroeste 14 Noroeste 0 -- -- 36
2018-01-31 16:00:00 12.6 8 Norte 16 Norte 0 -- -- 40
2018-01-31 15:00:00 12.9 8 Norte 15 Norte 0 -- -- 28
2018-01-31 14:00:00 12.8 4 Norte 10 Norte 0 -- -- 26
2018-01-31 13:00:00 12 4 Este 15 Norte 0 -- -- 30
2018-01-31 12:00:00 11 8 Nordeste 17 Este 0 -- -- 37
2018-01-31 11:00:00 9.2 6 Nordeste 12 Este 0 -- -- 43
2018-01-31 10:00:00 3.9 5 Sudeste 10 Sudeste 0 -- -- 66
2018-01-31 09:00:00 0.1 7 Sudeste 19 Sur 0 -- -- 73
2018-01-31 08:00:00 0.9 12 Sur 20 Sur 0 -- -- 62
2018-01-31 07:00:00 1.7 14 Sur 25 Sur 0 -- -- 60
2018-01-31 06:00:00 1.7 18 Sur 22 Sur 0 -- -- 58
2018-01-31 05:00:00 2.1 19 Sur 22 Sur 0 -- -- 57
2018-01-31 04:00:00 2.5 17 Sur 20 Sur 0 -- -- 59
2018-01-31 03:00:00 2.2 15 Sur 18 Sur 0 -- -- 61
2018-01-31 02:00:00 1.9 15 Sur 18 Sur 0 -- -- 64
2018-01-31 01:00:00 2 14 Sur 18 Sur 0 -- -- 67
2018-01-31 00:00:00 2.2 16 Sur 18 Sur 0 -- -- 69
2018-01-30 23:00:00 2.3 12 Sur 16 Sur 0 -- -- 70
2018-01-30 22:00:00 1.8 7 Sudeste 14 Sur 0 -- -- 80
2018-01-30 21:00:00 2.3 9 Sudeste 14 Sur 0 -- -- 81
2018-01-30 20:00:00 3.2 12 Sur 13 Sudeste 0 -- -- 81
2018-01-30 19:00:00 5.3 8 Sudeste 12 Sur 0 -- -- 73
2018-01-30 18:00:00 10.7 7 Nordeste 13 Norte 0 -- -- 54
2018-01-30 17:00:00 12.2 7 Norte 15 Noroeste 0 -- -- 46
2018-01-30 16:00:00 12.3 9 Norte 19 Oeste 0 -- -- 48
2018-01-30 15:00:00 11.9 9 Noroeste 18 Noroeste 0 -- -- 60
2018-01-30 14:00:00 11.9 8 Noroeste 14 Noroeste 0 -- -- 56
2018-01-30 13:00:00 11.1 8 Norte 17 Noroeste 0 -- -- 54
2018-01-30 12:00:00 11.7 10 Este 16 Este 0 -- -- 32
2018-01-30 11:00:00 9.7 0 Calma 8 Oeste 0 -- -- 44
2018-01-30 10:00:00 5.5 6 Sur 18 Sur 0 -- -- 51
2018-01-30 09:00:00 2 14 Sur 17 Sur 0 -- -- 63
2018-01-30 08:00:00 1.4 13 Sur 15 Sur 0 -- -- 67
2018-01-30 07:00:00 1.2 12 Sur 18 Sur 0 -- -- 65
2018-01-30 06:00:00 1.3 13 Sur 22 Sur 0 -- -- 65
2018-01-30 05:00:00 2.1 18 Sur 21 Sur 0 -- -- 61
2018-01-30 04:00:00 2.3 15 Sur 18 Sur 0 -- -- 61
2018-01-30 03:00:00 4.1 9 Sur 22 Este 0 -- -- 53
2018-01-30 02:00:00 7.3 20 Este 26 Este 0 -- -- 58
2018-01-30 01:00:00 5.3 13 Este 16 Este 0 -- -- 66
2018-01-30 00:00:00 5.4 10 Este 18 Este 0 -- -- 67
2018-01-29 23:00:00 4.5 9 Este 12 Este 0 -- -- 83
2018-01-29 22:00:00 5.6 11 Este 15 Este 0 -- -- 81
2018-01-29 21:00:00 4.9 11 Este 16 Este 0 -- -- 88
2018-01-29 20:00:00 3.7 5 Sudeste 9 Sudeste 0 -- -- 86
2018-01-29 19:00:00 7.2 8 Este 16 Nordeste 0 -- -- 75
2018-01-29 18:00:00 10.2 13 Nordeste 21 Nordeste 0 -- -- 64
2018-01-29 17:00:00 11.6 13 Nordeste 22 Nordeste 0 -- -- 63
2018-01-29 16:00:00 11.9 14 Nordeste 23 Nordeste 0 -- -- 65
2018-01-29 15:00:00 12.8 8 Norte 18 Norte 0 -- -- 53
2018-01-29 14:00:00 12.3 9 Norte 18 Nordeste 0 -- -- 55
2018-01-29 13:00:00 11.6 12 Nordeste 22 Nordeste 0 -- -- 55
2018-01-29 12:00:00 10.8 17 Este 24 Este 0 -- -- 53
2018-01-29 11:00:00 9.4 12 Este 23 Sudeste 0 -- -- 62
2018-01-29 10:00:00 5.6 13 Este 19 Este 0 -- -- 75
2018-01-29 09:00:00 3.5 4 Este 18 Este 0 -- -- 76
2018-01-29 08:00:00 6.1 17 Este 26 Este 0 -- -- 68
2018-01-29 07:00:00 5.1 16 Este 24 Este 0 -- -- 76
2018-01-29 06:00:00 3.2 13 Este 21 Este 0 -- -- 82
2018-01-29 05:00:00 3.3 15 Este 18 Este 0 -- -- 83
2018-01-29 04:00:00 2.6 12 Este 17 Este 0 -- -- 86
2018-01-29 03:00:00 1.3 4 Sur 17 Este 0 -- -- 88
2018-01-29 02:00:00 3.1 12 Este 18 Nordeste 0 -- -- 89
2018-01-29 01:00:00 2.6 9 Este 13 Sudeste 0 -- -- 85
2018-01-29 00:00:00 3.5 4 Nordeste 16 Sudeste 0 -- -- 83
2018-01-28 23:00:00 4.7 15 Este 23 Este 0 -- -- 81
2018-01-28 22:00:00 3.9 12 Este 17 Este 0 -- -- 82
2018-01-28 21:00:00 5.2 9 Sudeste 18 Este 0 -- -- 80
2018-01-28 20:00:00 6.3 13 Sudeste 22 Este 0 -- -- 77
2018-01-28 19:00:00 6.7 9 Sudeste 28 Este 0 -- -- 76
2018-01-28 18:00:00 8.1 19 Este 39 Este 0 -- -- 68
2018-01-28 17:00:00 8.7 20 Este 37 Este 0 -- -- 65
2018-01-28 16:00:00 8.3 23 Nordeste 39 Nordeste 0 -- -- 66
2018-01-28 15:00:00 7.8 22 Nordeste 36 Nordeste 0 -- -- 65
2018-01-28 14:00:00 6.8 20 Nordeste 30 Nordeste 0 -- -- 69
2018-01-28 13:00:00 6.4 21 Nordeste 32 Nordeste 0 -- -- 65
2018-01-28 12:00:00 5.8 24 Nordeste 32 Nordeste 0 -- -- 59
2018-01-28 11:00:00 4.2 18 Nordeste 26 Nordeste 0 -- -- 63
2018-01-28 10:00:00 2.5 14 Este 25 Este 0 -- -- 66
2018-01-28 09:00:00 1.1 17 Este 41 Este 0 -- -- 69
2018-01-28 08:00:00 1.9 33 Nordeste 46 Este 0 -- -- 64
2018-01-28 07:00:00 0.6 18 Este 38 Este 0 -- -- 71
2018-01-28 06:00:00 0.8 21 Este 38 Este 0 -- -- 70
2018-01-28 05:00:00 0.8 29 Este 39 Este 0 -- -- 71
2018-01-28 04:00:00 0.5 26 Este 41 Nordeste 0 -- -- 76
2018-01-28 03:00:00 -0.2 13 Este 30 Este 0 -- -- 81
2018-01-28 02:00:00 -0.4 13 Sudeste 36 Este 0 -- -- 84
2018-01-28 01:00:00 0.2 21 Nordeste 37 Este 0 -- -- 81
2018-01-28 00:00:00 1.2 21 Este 44 Este 0 -- -- 78
2018-01-27 23:00:00 1.8 25 Este 46 Este 0 -- -- 77
2018-01-27 22:00:00 2.3 30 Nordeste 56 Nordeste 0 -- -- 75
2018-01-27 21:00:00 2.8 28 Nordeste 42 Este 0 -- -- 77
2018-01-27 20:00:00 2.9 16 Nordeste 25 Nordeste 0 -- -- 78
2018-01-27 19:00:00 3.4 19 Nordeste 36 Nordeste 0 -- -- 75
2018-01-27 18:00:00 4.4 22 Nordeste 35 Este 0 -- -- 71
2018-01-27 17:00:00 5 23 Nordeste 37 Nordeste 0 -- -- 70
2018-01-27 16:00:00 5.1 24 Nordeste 37 Nordeste 0 -- -- 71
2018-01-27 15:00:00 5.3 19 Nordeste 33 Nordeste 0 -- -- 69
2018-01-27 14:00:00 4.5 23 Nordeste 36 Nordeste 0 -- -- 73
2018-01-27 13:00:00 4.4 18 Nordeste 30 Norte 0 -- -- 76
2018-01-27 12:00:00 3.2 16 Nordeste 25 Nordeste 0 -- -- 84
2018-01-27 11:00:00 1.6 8 Nordeste 16 Nordeste 0 -- -- 92
2018-01-27 10:00:00 0.6 7 Nordeste 12 Este 0 -- -- 98
2018-01-27 09:00:00 -0.9 5 Este 9 Este 0 -- -- 99
2018-01-27 08:00:00 -1.1 0 Calma 5 Sur 0 -- -- 99
2018-01-27 07:00:00 -1.4 3 Sudeste 5 Este 0 -- -- 98
2018-01-27 06:00:00 -1.5 0 Calma 8 Este 0 -- -- 98
2018-01-27 05:00:00 -1 4 Sudeste 6 Sudeste 0 -- -- 98
2018-01-27 04:00:00 -0.4 0 Calma 9 Norte 0 -- -- 99
2018-01-27 03:00:00 -0.1 3 Nordeste 9 Nordeste 0 -- -- 98
2018-01-27 02:00:00 -0.1 0 Calma 8 Nordeste 0 -- -- 98
2018-01-27 01:00:00 0.2 3 Nordeste 6 Norte 0 -- -- 98
2018-01-27 00:00:00 0.4 2 Sudeste 5 Norte 0 -- -- 97
2018-01-26 23:00:00 0.5 0 Calma 9 Noroeste 0 -- -- 97
2018-01-26 22:00:00 0.3 3 Oeste 9 Sudoeste 0 -- -- 95
2018-01-26 21:00:00 0.3 4 Sur 16 Noroeste 0 -- -- 92
2018-01-26 20:00:00 1.4 8 Noroeste 23 Noroeste 0 -- -- 90
2018-01-26 19:00:00 2.5 12 Noroeste 31 Noroeste 0 -- -- 84
2018-01-26 18:00:00 4.4 20 Noroeste 33 Oeste 0.2 -- -- 78
2018-01-26 17:00:00 4.4 21 Noroeste 30 Oeste 0 -- -- 79
2018-01-26 16:00:00 3.8 18 Noroeste 28 Noroeste 0 -- -- 79
2018-01-26 15:00:00 3.8 18 Noroeste 31 Noroeste 0 -- -- 78
2018-01-26 14:00:00 4.4 14 Noroeste 30 Noroeste 0 -- -- 83
2018-01-26 13:00:00 2.5 16 Noroeste 32 Noroeste 0 -- -- 91
2018-01-26 12:00:00 1.3 13 Noroeste 26 Oeste 0 -- -- 99
2018-01-26 11:00:00 0.2 11 Oeste 20 Oeste 0 -- -- 100
2018-01-26 10:00:00 -0.2 6 Oeste 23 Oeste 0 -- -- 100
2018-01-26 09:00:00 -0.4 9 Oeste 21 Oeste 0 -- -- 100
2018-01-26 08:00:00 -0.4 9 Oeste 23 Oeste 0 -- -- 99
2018-01-26 07:00:00 -0.4 8 Oeste 19 Oeste 0 -- -- 99
2018-01-26 06:00:00 -0.4 9 Oeste 17 Sudoeste 0 -- -- 99
2018-01-26 05:00:00 -0.3 10 Oeste 18 Oeste 0 -- -- 99
2018-01-26 04:00:00 -0.4 8 Oeste 22 Oeste 0 -- -- 100
2018-01-26 03:00:00 -0.4 10 Oeste 17 Oeste 0 -- -- 100
2018-01-26 02:00:00 -0.5 8 Oeste 15 Oeste 0 -- -- 100
2018-01-26 01:00:00 -0.7 6 Oeste 18 Oeste 0 -- -- 100
2018-01-26 00:00:00 -0.1 9 Oeste 19 Oeste 0 -- -- 100
2018-01-25 23:00:00 -0.2 11 Oeste 21 Oeste 0 -- -- 99
2018-01-25 22:00:00 0.6 16 Noroeste 31 Noroeste 0 -- -- 99
2018-01-25 21:00:00 1.1 13 Oeste 33 Noroeste 0 -- -- 99
2018-01-25 20:00:00 1.3 20 Noroeste 36 Oeste 0 -- -- 99
2018-01-25 19:00:00 0.9 12 Oeste 33 Noroeste 0 -- -- 99
2018-01-25 18:00:00 1.3 20 Noroeste 36 Noroeste 0.4 -- -- 98
2018-01-25 17:00:00 2.6 26 Oeste 42 Oeste 0.6 -- -- 96
2018-01-25 16:00:00 3.8 14 Oeste 37 Oeste 1 -- -- 98
2018-01-25 15:00:00 4.3 19 Oeste 34 Oeste 0.6 -- -- 97
2018-01-25 14:00:00 4.5 20 Sudoeste 32 Sudoeste 1 -- -- 97
2018-01-25 13:00:00 4.6 19 Oeste 37 Sudoeste 1.2 -- -- 97
2018-01-25 12:00:00 5.5 24 Sudoeste 44 Sudoeste 0.8 -- -- 96
2018-01-25 11:00:00 6 30 Sudoeste 49 Sudoeste 1.2 -- -- 94
2018-01-25 10:00:00 6.2 21 Sudoeste 41 Sur 1.8 -- -- 92
2018-01-25 09:00:00 6.2 19 Sudoeste 36 Sudoeste 2.8 -- -- 92
2018-01-25 08:00:00 7.2 16 Sudoeste 32 Sudoeste 0 -- -- 92
2018-01-25 07:00:00 7.4 18 Sudoeste 34 Sudoeste 0 -- -- 78
2018-01-25 06:00:00 7.4 21 Sudoeste 32 Sudoeste 0 -- -- 65
2018-01-25 05:00:00 5.6 4 Sur 15 Sur 0 -- -- 60
2018-01-25 04:00:00 4.6 8 Noroeste 12 Noroeste 0 -- -- 63
2018-01-25 03:00:00 3 3 Sur 16 Noroeste 0 -- -- 82
2018-01-25 02:00:00 4.4 4 Este 13 Sudeste 0 -- -- 72
2018-01-25 01:00:00 2 3 Sudeste 12 Sur 0 -- -- 81
2018-01-25 00:00:00 2.2 11 Sur 13 Sur 0 -- -- 85
2018-01-24 23:00:00 2.5 9 Sur 13 Sur 0 -- -- 89
2018-01-24 22:00:00 2.9 6 Sudeste 13 Sur 0 -- -- 94
2018-01-24 21:00:00 2.5 6 Sur 10 Sur 0 -- -- 95
2018-01-24 20:00:00 3.6 7 Sur 13 Sur 0 -- -- 92
2018-01-24 19:00:00 4.8 9 Sur 13 Sur 0 -- -- 90
2018-01-24 18:00:00 7 0 Calma 7 Noroeste 0 -- -- 85
2018-01-24 17:00:00 7.2 4 Norte 10 Noroeste 0 -- -- 84
2018-01-24 16:00:00 8 5 Norte 8 Norte 0 -- -- 80
2018-01-24 15:00:00 6.6 5 Noroeste 10 Norte 0 -- -- 86
2018-01-24 14:00:00 6.5 7 Noroeste 14 Noroeste 0 -- -- 83
2018-01-24 13:00:00 7.3 6 Norte 10 Norte 0 -- -- 79
2018-01-24 12:00:00 6.4 3 Noroeste 10 Noroeste 0 -- -- 82
2018-01-24 11:00:00 6.6 4 Norte 9 Norte 0 -- -- 79
2018-01-24 10:00:00 4.7 4 Norte 17 Norte 0 -- -- 77
2018-01-24 09:00:00 4.7 5 Norte 19 Sur 0 -- -- 72
2018-01-24 08:00:00 6.8 10 Sur 16 Sudeste 0 -- -- 62
2018-01-24 07:00:00 5.3 12 Sudeste 15 Sur 0 -- -- 63
2018-01-24 06:00:00 5.4 2 Sudoeste 5 Este 0 -- -- 66
2018-01-24 05:00:00 5.3 4 Sur 10 Sur 0 -- -- 69
2018-01-24 04:00:00 1 0 Calma 12 Sudeste 0 -- -- 84
2018-01-24 03:00:00 1.9 3 Sur 10 Sur 0 -- -- 83
2018-01-24 02:00:00 0.9 6 Sur 13 Sur 0 -- -- 99
2018-01-24 01:00:00 -0.3 2 Este 7 Sudeste 0 -- -- 98
2018-01-24 00:00:00 -0.3 4 Nordeste 5 Nordeste 0 -- -- 97
2018-01-23 23:00:00 0 2 Sudoeste 9 Sudeste 0 -- -- 95
2018-01-23 22:00:00 0.4 6 Este 6 Este 0 -- -- 98
2018-01-23 21:00:00 2.1 3 Sur 4 Sur 0 -- -- 97
2018-01-23 20:00:00 3.7 3 Sudeste 9 Este 0 -- -- 97
2018-01-23 19:00:00 5.2 5 Este 7 Este 0 -- -- 97
2018-01-23 18:00:00 6 3 Norte 8 Norte 0 -- -- 97
2018-01-23 17:00:00 6.3 3 Nordeste 8 Noroeste 0 -- -- 94
2018-01-23 16:00:00 7.8 4 Norte 11 Noroeste 0 -- -- 87
2018-01-23 15:00:00 10.8 3 Norte 16 Noroeste 0 -- -- 77
2018-01-23 14:00:00 13 10 Noroeste 14 Noroeste 0 -- -- 64
2018-01-23 13:00:00 10.1 2 Norte 5 Norte 0 -- -- 83
2018-01-23 12:00:00 7.2 2 Noroeste 10 Oeste 0 -- -- 90
2018-01-23 11:00:00 8.2 0 Calma 4 Sur 0 -- -- 78
2018-01-23 10:00:00 3.3 4 Sudeste 7 Sur 0 -- -- 90
2018-01-23 09:00:00 1.7 4 Sur 17 Sur 0 -- -- 82
2018-01-23 08:00:00 2.3 10 Sur 14 Sur 0 -- -- 79
2018-01-23 07:00:00 2.4 6 Sur 21 Sur 0 -- -- 81
2018-01-23 06:00:00 0.9 9 Sudeste 17 Sur 0 -- -- 92
2018-01-23 05:00:00 1.5 11 Sur 15 Sur 0 -- -- 93
2018-01-23 04:00:00 1.7 12 Sur 16 Sur 0 -- -- 92
2018-01-23 03:00:00 1.9 4 Sudeste 15 Este 0 -- -- 95
2018-01-23 02:00:00 4.9 13 Este 17 Este 0 -- -- 99
2018-01-23 01:00:00 3.4 9 Este 14 Sur 0 -- -- 99
2018-01-23 00:00:00 2.5 11 Sur 15 Sur 0 -- -- 97
2018-01-22 23:00:00 2.1 10 Sur 13 Sur 0 -- -- 97
2018-01-22 22:00:00 2.8 10 Sudeste 12 Sudeste 0 -- -- 96
2018-01-22 21:00:00 3 9 Sur 13 Sudeste 0 -- -- 94
2018-01-22 20:00:00 3.9 9 Sur 13 Sur 0 -- -- 89
2018-01-22 19:00:00 5.2 9 Sur 13 Sur 0 -- -- 83
2018-01-22 18:00:00 10.8 4 Noroeste 10 Noroeste 0 -- -- 70
2018-01-22 17:00:00 12.5 4 Noroeste 8 Noroeste 0 -- -- 65
2018-01-22 16:00:00 12.4 4 Norte 10 Norte 0 -- -- 63
2018-01-22 15:00:00 11.6 2 Oeste 10 Noroeste 0 -- -- 64
2018-01-22 14:00:00 9.9 4 Noroeste 9 Noroeste 0 -- -- 72
2018-01-22 13:00:00 7.9 5 Norte 14 Norte 0 -- -- 88
2018-01-22 12:00:00 6.5 6 Nordeste 14 Norte 0 -- -- 100
2018-01-22 11:00:00 4.4 4 Noroeste 9 Sudoeste 0 -- -- 100
2018-01-22 10:00:00 3.9 2 Sudoeste 9 Sur 0 -- -- 100
2018-01-22 09:00:00 3.1 6 Sur 15 Sur 0 -- -- 98
2018-01-22 08:00:00 4.5 6 Oeste 12 Oeste 0 -- -- 99
2018-01-22 07:00:00 4.8 6 Oeste 12 Oeste 0 -- -- 99
2018-01-22 06:00:00 3.9 10 Sur 15 Sur 0 -- -- 99
2018-01-22 05:00:00 4.9 9 Sur 16 Sur 0 -- -- 98
2018-01-22 04:00:00 5.2 7 Sudoeste 14 Sudoeste 0 -- -- 99
2018-01-22 03:00:00 3.5 6 Sur 13 Sur 0 -- -- 98
2018-01-22 02:00:00 2.5 8 Sur 12 Sur 0 -- -- 96
2018-01-22 01:00:00 2.6 12 Sur 16 Sur 0 -- -- 96
2018-01-22 00:00:00 2.8 7 Sur 18 Sur 0 -- -- 95